Time;durP1;ratioP1;P1;durP2;ratioP2;P2;SDS_P1;SDS_P2;PMS_P1;PMS_P2;Temp;Humidity;BMP_temperature;BMP_pressure;BME280_temperature;BME280_humidity;BME280_pressure;Samples;Min_cycle;Max_cycle;Signal;HPM_P1;HPM_P2
2023/12/03 00:01:41;;;;;;;25.90;8.47;;;0.80;99.90;;;;;;5091617;28;20046;-54
2023/12/03 00:04:07;;;;;;;24.20;8.77;;;0.80;99.90;;;;;;5091590;28;20033;-55
2023/12/03 00:06:33;;;;;;;22.93;8.37;;;0.70;99.90;;;;;;5091666;28;20086;-54
2023/12/03 00:08:59;;;;;;;25.53;9.60;;;0.70;99.90;;;;;;5091505;28;20059;-54
2023/12/03 00:11:25;;;;;;;26.30;8.97;;;0.80;99.90;;;;;;5091455;28;20196;-53
2023/12/03 00:13:50;;;;;;;24.03;9.53;;;0.80;99.90;;;;;;5091667;28;20438;-54
2023/12/03 00:16:16;;;;;;;24.37;9.50;;;0.80;99.90;;;;;;5091529;28;20107;-52
2023/12/03 00:18:42;;;;;;;28.13;10.53;;;0.80;99.90;;;;;;5091958;28;20073;-54
2023/12/03 00:21:07;;;;;;;26.83;8.70;;;0.80;99.90;;;;;;5095380;28;20031;-50
2023/12/03 00:23:33;;;;;;;29.83;8.77;;;0.80;99.90;;;;;;5095394;28;20081;-50
2023/12/03 00:25:59;;;;;;;24.37;8.93;;;0.80;99.90;;;;;;5094059;28;20392;-51
2023/12/03 00:28:24;;;;;;;27.73;9.07;;;0.80;99.90;;;;;;5095019;28;20024;-50
2023/12/03 00:30:50;;;;;;;23.13;8.67;;;0.80;99.90;;;;;;5095206;28;20024;-51
2023/12/03 00:33:15;;;;;;;24.13;9.17;;;0.80;99.90;;;;;;5095205;28;20035;-50
2023/12/03 00:35:41;;;;;;;28.47;8.70;;;0.80;99.90;;;;;;5094920;28;20092;-51
2023/12/03 00:38:07;;;;;;;27.50;8.57;;;0.80;99.90;;;;;;5095032;28;20040;-51
2023/12/03 00:40:32;;;;;;;23.60;8.50;;;0.90;99.90;;;;;;5095006;28;20055;-55
2023/12/03 00:42:58;;;;;;;24.37;8.60;;;0.90;99.90;;;;;;5095144;28;20024;-51
2023/12/03 00:45:23;;;;;;;28.27;8.80;;;0.90;99.90;;;;;;5094869;28;20122;-52
2023/12/03 00:47:49;;;;;;;25.40;8.83;;;0.90;99.90;;;;;;5093786;28;20203;-53
2023/12/03 00:50:15;;;;;;;29.10;7.77;;;0.80;99.90;;;;;;5094927;28;20035;-49
2023/12/03 00:52:40;;;;;;;29.50;9.53;;;0.80;99.90;;;;;;5094742;28;20040;-52
2023/12/03 00:55:06;;;;;;;26.43;8.23;;;0.80;99.90;;;;;;5094640;28;20039;-50
2023/12/03 00:57:32;;;;;;;31.17;10.03;;;0.80;99.90;;;;;;5094814;28;20039;-50
2023/12/03 00:59:58;;;;;;;28.17;9.63;;;0.80;99.90;;;;;;5094640;28;20298;-49
2023/12/03 01:02:23;;;;;;;28.27;9.47;;;0.80;99.90;;;;;;5094587;28;20028;-51
2023/12/03 01:04:49;;;;;;;25.77;8.57;;;0.80;99.90;;;;;;5094442;28;20106;-53
2023/12/03 01:07:14;;;;;;;28.27;10.10;;;0.80;99.90;;;;;;5094556;28;20038;-52
2023/12/03 01:09:41;;;;;;;26.80;8.93;;;0.80;99.90;;;;;;5076290;28;20025;-55
2023/12/03 01:12:07;;;;;;;30.33;9.37;;;0.80;99.90;;;;;;5094414;28;20028;-53
2023/12/03 01:14:32;;;;;;;23.90;8.67;;;0.80;99.90;;;;;;5094304;28;20514;-54
2023/12/03 01:16:58;;;;;;;32.60;9.20;;;0.80;99.90;;;;;;5094392;28;20082;-53
2023/12/03 01:19:24;;;;;;;26.10;9.73;;;0.80;99.90;;;;;;5094221;28;20119;-52
2023/12/03 01:21:49;;;;;;;30.80;10.87;;;0.80;99.90;;;;;;5094179;28;20036;-50
2023/12/03 01:24:15;;;;;;;33.00;10.80;;;0.80;99.90;;;;;;5094228;28;20075;-52
2023/12/03 01:26:40;;;;;;;33.87;11.37;;;0.90;99.90;;;;;;5094006;28;20055;-54
2023/12/03 01:29:06;;;;;;;32.80;10.43;;;0.90;99.90;;;;;;5094030;28;20112;-53
2023/12/03 01:31:32;;;;;;;30.47;10.07;;;0.90;99.90;;;;;;5093121;28;20059;-53
2023/12/03 01:33:57;;;;;;;35.47;11.00;;;0.80;99.90;;;;;;5091589;28;20357;-50
2023/12/03 01:36:23;;;;;;;40.93;12.17;;;0.90;99.90;;;;;;5092938;28;20107;-53
2023/12/03 01:38:49;;;;;;;30.80;10.37;;;0.90;99.90;;;;;;5092805;28;20123;-52
2023/12/03 01:41:14;;;;;;;30.80;10.73;;;0.90;99.90;;;;;;5092823;28;20024;-54
2023/12/03 01:43:47;;;;;;;29.90;10.73;;;0.90;99.90;;;;;;5092877;28;20032;-53
2023/12/03 01:46:13;;;;;;;37.33;12.50;;;0.90;99.90;;;;;;5092809;28;20039;-54
2023/12/03 01:48:39;;;;;;;38.63;11.37;;;0.90;99.90;;;;;;5092845;28;20035;-52
2023/12/03 01:51:05;;;;;;;30.70;9.73;;;0.90;99.90;;;;;;5092599;28;20114;-53
2023/12/03 01:53:31;;;;;;;35.17;12.70;;;0.90;99.90;;;;;;5092645;28;20056;-53
2023/12/03 01:55:57;;;;;;;30.10;9.67;;;1.00;99.90;;;;;;5092613;28;20055;-54
2023/12/03 01:58:23;;;;;;;30.27;10.67;;;1.00;99.90;;;;;;5092838;28;20069;-54
2023/12/03 02:00:49;;;;;;;28.97;10.57;;;1.10;99.90;;;;;;5092718;28;20051;-54
2023/12/03 02:03:17;;;;;;;28.23;8.80;;;1.10;99.90;;;;;;5091642;28;20020;-52
2023/12/03 02:06:02;;;;;;;32.87;10.50;;;1.30;99.90;;;;;;5093202;28;20027;-54
2023/12/03 02:08:27;;;;;;;30.80;9.83;;;1.20;99.90;;;;;;5093736;28;20051;-53
2023/12/03 02:10:53;;;;;;;25.97;9.73;;;1.20;99.90;;;;;;5093742;28;20480;-53
2023/12/03 02:13:19;;;;;;;32.20;10.83;;;1.20;99.90;;;;;;5093889;28;20028;-51
2023/12/03 02:15:44;;;;;;;28.70;10.50;;;1.30;99.90;;;;;;5093653;28;20028;-53
2023/12/03 02:18:10;;;;;;;31.83;10.03;;;1.30;99.90;;;;;;5093853;28;20024;-49
2023/12/03 02:20:36;;;;;;;27.03;9.33;;;1.20;99.90;;;;;;5093534;28;20028;-53
2023/12/03 02:23:02;;;;;;;30.47;10.17;;;1.30;99.90;;;;;;5093739;28;20077;-53
2023/12/03 02:25:28;;;;;;;31.03;11.67;;;1.30;99.90;;;;;;5094099;28;20050;-53
2023/12/03 02:27:53;;;;;;;31.47;9.93;;;1.30;99.90;;;;;;5093038;28;20492;-54
2023/12/03 02:30:19;;;;;;;32.63;10.57;;;1.20;99.90;;;;;;5092895;28;20024;-54
2023/12/03 02:32:45;;;;;;;34.00;10.53;;;1.20;99.90;;;;;;5092996;28;20078;-54
2023/12/03 02:35:10;;;;;;;28.43;11.27;;;1.20;99.90;;;;;;5092608;28;20028;-54
2023/12/03 02:37:36;;;;;;;38.17;12.27;;;1.20;99.90;;;;;;5091369;28;20119;-54
2023/12/03 02:40:01;;;;;;;35.17;11.43;;;1.20;99.90;;;;;;5092911;28;20036;-52
2023/12/03 02:42:27;;;;;;;33.63;10.27;;;1.10;99.90;;;;;;5091808;28;20032;-53
2023/12/03 02:44:53;;;;;;;35.53;11.87;;;1.10;99.90;;;;;;5092475;28;20024;-51
2023/12/03 02:47:18;;;;;;;31.60;9.83;;;1.10;99.90;;;;;;5092611;28;20484;-53
2023/12/03 02:49:45;;;;;;;32.47;10.17;;;1.20;99.90;;;;;;5092410;28;20031;-54
2023/12/03 02:52:10;;;;;;;33.17;10.00;;;1.20;99.90;;;;;;5092505;28;20483;-54
2023/12/03 02:54:38;;;;;;;38.20;10.33;;;1.20;99.90;;;;;;5092415;28;20028;-51
2023/12/03 02:57:05;;;;;;;31.93;10.23;;;1.30;99.90;;;;;;5092352;28;20439;-52
2023/12/03 02:59:33;;;;;;;29.23;9.33;;;1.30;99.90;;;;;;5092325;28;20036;-53
2023/12/03 03:01:59;;;;;;;31.47;11.27;;;1.30;99.90;;;;;;5092256;28;20032;-54
2023/12/03 03:04:24;;;;;;;32.27;10.30;;;1.30;99.90;;;;;;5092125;28;20032;-51
2023/12/03 03:06:50;;;;;;;27.30;9.50;;;1.30;99.90;;;;;;5092179;28;20099;-54
2023/12/03 03:09:15;;;;;;;34.83;11.17;;;1.30;99.90;;;;;;5090851;28;20505;-50
2023/12/03 03:11:41;;;;;;;27.67;10.20;;;1.40;99.90;;;;;;5092276;28;20052;-52
2023/12/03 03:14:07;;;;;;;25.97;10.63;;;1.40;99.90;;;;;;5092114;28;20050;-51
2023/12/03 03:16:32;;;;;;;33.40;10.53;;;1.30;99.90;;;;;;5092164;28;20024;-55
2023/12/03 03:18:58;;;;;;;29.00;9.50;;;1.20;99.90;;;;;;5090564;28;20031;-52
2023/12/03 03:21:23;;;;;;;29.67;10.20;;;1.20;99.90;;;;;;5092036;28;20020;-53
2023/12/03 03:23:49;;;;;;;33.00;10.50;;;1.20;99.90;;;;;;5092228;28;20027;-54
2023/12/03 03:26:15;;;;;;;29.67;10.90;;;1.30;99.90;;;;;;5091861;28;20024;-54
2023/12/03 03:28:40;;;;;;;30.53;10.63;;;1.30;99.90;;;;;;5091806;28;20106;-55
2023/12/03 03:31:06;;;;;;;25.77;9.80;;;1.30;99.90;;;;;;5090636;28;20034;-55
2023/12/03 03:33:31;;;;;;;34.30;9.60;;;1.20;99.90;;;;;;5091842;28;20497;-54
2023/12/03 03:35:57;;;;;;;27.53;9.63;;;1.20;99.90;;;;;;5092082;28;20055;-53
2023/12/03 03:38:23;;;;;;;23.97;8.70;;;1.20;99.90;;;;;;5091773;28;20036;-53
2023/12/03 03:40:48;;;;;;;30.70;9.23;;;1.10;99.90;;;;;;5092244;28;20032;-50
2023/12/03 03:43:14;;;;;;;29.03;9.50;;;1.10;99.90;;;;;;5091870;28;20093;-53
2023/12/03 03:45:39;;;;;;;26.87;9.17;;;1.10;99.90;;;;;;5091692;28;20481;-54
2023/12/03 03:48:05;;;;;;;23.83;9.10;;;1.20;99.90;;;;;;5091715;28;20054;-51
2023/12/03 03:50:31;;;;;;;27.20;9.90;;;1.20;99.90;;;;;;5091636;28;20384;-54
2023/12/03 03:52:56;;;;;;;28.73;8.77;;;1.10;99.90;;;;;;5091822;28;20028;-54
2023/12/03 03:55:22;;;;;;;23.87;8.73;;;1.10;99.90;;;;;;5095069;28;20028;-54
2023/12/03 03:57:48;;;;;;;22.60;7.50;;;1.10;99.90;;;;;;5095905;28;20047;-53
2023/12/03 04:00:14;;;;;;;26.27;9.90;;;1.00;99.90;;;;;;5095669;28;20028;-54
2023/12/03 04:02:40;;;;;;;22.47;7.80;;;1.00;99.90;;;;;;5095775;28;20484;-53
2023/12/03 04:05:07;;;;;;;29.33;11.23;;;1.00;99.90;;;;;;5095513;28;20032;-52
2023/12/03 04:07:33;;;;;;;23.83;8.30;;;1.00;99.90;;;;;;5094313;28;20028;-51
2023/12/03 04:09:59;;;;;;;26.60;9.73;;;1.00;99.90;;;;;;5095464;28;20043;-53
2023/12/03 04:12:24;;;;;;;21.37;7.30;;;1.00;99.90;;;;;;5095616;28;20066;-54
2023/12/03 04:14:50;;;;;;;29.70;8.33;;;0.90;99.90;;;;;;5095450;28;20074;-54
2023/12/03 04:17:16;;;;;;;25.53;9.00;;;0.90;99.90;;;;;;5095450;28;20507;-54
2023/12/03 04:19:41;;;;;;;22.23;8.53;;;0.80;99.90;;;;;;5095294;28;20131;-54
2023/12/03 04:22:07;;;;;;;20.00;8.30;;;0.90;99.90;;;;;;5095392;28;20059;-54
2023/12/03 04:24:32;;;;;;;22.10;7.30;;;0.90;99.90;;;;;;5095249;28;20153;-54
2023/12/03 04:26:58;;;;;;;26.47;8.53;;;1.00;99.90;;;;;;5095292;28;20054;-54
2023/12/03 04:29:24;;;;;;;27.27;8.77;;;1.00;99.90;;;;;;5095130;28;20059;-53
2023/12/03 04:31:50;;;;;;;25.27;7.67;;;1.00;99.90;;;;;;5095086;28;20038;-52
2023/12/03 04:34:15;;;;;;;25.30;8.40;;;0.90;99.90;;;;;;5094988;28;20040;-54
2023/12/03 04:36:44;;;;;;;25.27;8.13;;;0.90;99.90;;;;;;5095230;28;20400;-51
2023/12/03 04:39:10;;;;;;;23.37;7.23;;;0.90;99.90;;;;;;5095058;28;20036;-52
2023/12/03 04:41:37;;;;;;;25.10;9.13;;;0.90;99.90;;;;;;5094819;28;20039;-51
2023/12/03 04:44:04;;;;;;;27.37;7.87;;;0.90;99.90;;;;;;5093955;28;20431;-52
2023/12/03 04:46:30;;;;;;;26.20;7.60;;;0.80;99.90;;;;;;5093656;28;20028;-53
2023/12/03 04:48:55;;;;;;;21.33;8.03;;;0.80;99.90;;;;;;5093924;28;20039;-53
2023/12/03 04:51:21;;;;;;;20.20;7.13;;;0.80;99.90;;;;;;5093943;28;20032;-53
2023/12/03 04:53:47;;;;;;;19.87;6.77;;;0.80;99.90;;;;;;5093906;28;20133;-52
2023/12/03 04:56:12;;;;;;;22.17;7.43;;;0.70;99.90;;;;;;5093570;28;20017;-53
2023/12/03 04:58:38;;;;;;;16.93;6.33;;;0.80;99.90;;;;;;5093961;28;20137;-53
2023/12/03 05:01:04;;;;;;;26.10;8.73;;;0.80;99.90;;;;;;5094473;28;20033;-53
2023/12/03 05:03:30;;;;;;;21.07;7.80;;;0.90;99.90;;;;;;5093281;28;20057;-53
2023/12/03 05:05:55;;;;;;;19.80;7.50;;;0.90;99.90;;;;;;5093311;28;20024;-53
2023/12/03 05:08:21;;;;;;;23.43;7.33;;;0.90;99.90;;;;;;5094344;28;20032;-53
2023/12/03 05:10:46;;;;;;;24.50;6.80;;;0.90;99.90;;;;;;5094006;28;20120;-53
2023/12/03 05:13:15;;;;;;;20.23;6.90;;;1.00;99.90;;;;;;5094411;28;20028;-54
2023/12/03 05:15:40;;;;;;;19.63;6.70;;;0.90;99.90;;;;;;5094097;28;20074;-53
2023/12/03 05:18:06;;;;;;;21.73;7.30;;;0.90;99.90;;;;;;5094338;28;20484;-54
2023/12/03 05:20:32;;;;;;;19.63;6.40;;;0.90;99.90;;;;;;5094182;28;20036;-54
2023/12/03 05:22:57;;;;;;;19.13;6.80;;;1.00;99.90;;;;;;5094295;28;20040;-52
2023/12/03 05:25:23;;;;;;;19.87;6.77;;;0.90;99.90;;;;;;5094124;28;20035;-54
2023/12/03 05:27:49;;;;;;;16.47;6.00;;;0.90;99.90;;;;;;5094115;28;20028;-53
2023/12/03 05:30:15;;;;;;;19.47;6.63;;;0.90;99.90;;;;;;5093856;28;20034;-51
2023/12/03 05:32:41;;;;;;;18.60;6.73;;;0.90;99.90;;;;;;5094016;28;20020;-54
2023/12/03 05:35:07;;;;;;;22.27;6.37;;;0.90;99.90;;;;;;5093897;28;20051;-54
2023/12/03 05:37:33;;;;;;;21.33;6.90;;;1.00;99.90;;;;;;5093897;28;20067;-54
2023/12/03 05:39:58;;;;;;;20.50;6.87;;;0.90;99.90;;;;;;5094065;28;20048;-53
2023/12/03 05:42:24;;;;;;;21.90;6.57;;;0.90;99.90;;;;;;5092851;28;20570;-53
2023/12/03 05:44:49;;;;;;;22.73;7.13;;;1.00;99.90;;;;;;5093801;28;20431;-50
2023/12/03 05:47:15;;;;;;;15.83;6.77;;;1.00;99.90;;;;;;5093809;28;20119;-54
2023/12/03 05:49:41;;;;;;;21.07;6.57;;;1.00;99.90;;;;;;5093611;28;20024;-53
2023/12/03 05:52:07;;;;;;;17.50;6.00;;;1.00;99.90;;;;;;5093639;28;20035;-53
2023/12/03 05:54:33;;;;;;;21.50;6.47;;;1.00;99.90;;;;;;5093576;28;20031;-54
2023/12/03 05:56:59;;;;;;;17.30;6.57;;;1.00;99.90;;;;;;5093573;28;20435;-54
2023/12/03 05:59:26;;;;;;;21.57;6.80;;;1.00;99.90;;;;;;5093395;28;20062;-51
2023/12/03 06:01:52;;;;;;;18.40;6.40;;;1.00;99.90;;;;;;5093673;28;20031;-50
2023/12/03 06:04:18;;;;;;;20.97;6.37;;;0.90;99.90;;;;;;5093379;28;20561;-54
2023/12/03 06:06:44;;;;;;;15.37;5.73;;;1.00;99.90;;;;;;5092169;28;20489;-54
2023/12/03 06:09:09;;;;;;;20.67;7.10;;;1.10;99.90;;;;;;5093262;28;20027;-54
2023/12/03 06:11:35;;;;;;;16.87;6.50;;;1.10;99.90;;;;;;5093407;28;20465;-54
2023/12/03 06:14:04;;;;;;;18.27;6.47;;;1.10;99.90;;;;;;5093268;28;20477;-54
2023/12/03 06:16:30;;;;;;;20.73;7.73;;;1.10;99.90;;;;;;5092229;28;20508;-54
2023/12/03 06:18:56;;;;;;;19.87;7.17;;;1.10;99.90;;;;;;5092232;28;20430;-54
2023/12/03 06:21:22;;;;;;;21.73;5.80;;;1.10;99.90;;;;;;5092301;28;20047;-54
2023/12/03 06:23:48;;;;;;;14.93;6.20;;;1.10;99.90;;;;;;5093161;28;20036;-54
2023/12/03 06:26:14;;;;;;;18.87;6.33;;;1.10;99.90;;;;;;5093150;28;20050;-53
2023/12/03 06:28:39;;;;;;;18.77;5.63;;;1.10;99.90;;;;;;5092840;28;20049;-53
2023/12/03 06:31:06;;;;;;;19.57;6.83;;;1.10;99.90;;;;;;5092913;28;20537;-54
2023/12/03 06:33:32;;;;;;;16.80;6.07;;;1.00;99.90;;;;;;5093049;28;20111;-54
2023/12/03 06:35:58;;;;;;;23.57;7.23;;;1.00;99.90;;;;;;5092751;28;20028;-52
2023/12/03 06:38:23;;;;;;;18.63;7.20;;;1.10;99.90;;;;;;5092962;28;20035;-53
2023/12/03 06:40:49;;;;;;;17.13;5.80;;;1.10;99.90;;;;;;5092818;28;20118;-54
2023/12/03 06:43:15;;;;;;;21.07;6.50;;;1.10;99.90;;;;;;5092558;28;20024;-54
2023/12/03 06:45:40;;;;;;;17.90;6.37;;;1.10;99.90;;;;;;5092526;28;20032;-53
2023/12/03 06:48:07;;;;;;;20.50;6.73;;;1.10;99.90;;;;;;5092531;28;20044;-52
2023/12/03 06:50:33;;;;;;;19.10;5.73;;;1.10;99.90;;;;;;5091238;28;20065;-54
2023/12/03 06:52:59;;;;;;;15.87;6.07;;;1.00;99.90;;;;;;5092559;28;20028;-53
2023/12/03 06:55:25;;;;;;;14.07;5.20;;;1.10;99.90;;;;;;5092426;28;20032;-54
2023/12/03 06:57:51;;;;;;;18.27;7.27;;;1.10;99.90;;;;;;5093015;28;20077;-53
2023/12/03 07:00:17;;;;;;;15.73;5.87;;;1.00;99.90;;;;;;5092286;28;20027;-53
2023/12/03 07:02:43;;;;;;;18.17;6.47;;;1.10;99.90;;;;;;5092409;28;20044;-52
2023/12/03 07:05:08;;;;;;;20.60;6.87;;;1.20;99.90;;;;;;5092220;28;20024;-54
2023/12/03 07:07:34;;;;;;;23.60;7.53;;;1.20;99.90;;;;;;5092163;28;20493;-52
2023/12/03 07:09:59;;;;;;;15.27;5.97;;;1.20;99.90;;;;;;5092156;28;20056;-52
2023/12/03 07:12:25;;;;;;;19.67;6.50;;;1.20;99.90;;;;;;5092646;28;20027;-53
2023/12/03 07:14:50;;;;;;;21.67;5.83;;;1.20;99.90;;;;;;5092072;28;20088;-53
2023/12/03 07:17:16;;;;;;;18.53;7.03;;;1.30;99.90;;;;;;5092213;28;20048;-54
2023/12/03 07:19:45;;;;;;;16.90;6.00;;;1.30;99.90;;;;;;5092050;28;20032;-54
2023/12/03 07:22:11;;;;;;;20.25;6.32;;;1.20;99.90;;;;;;5092143;28;20039;-54
2023/12/03 07:24:41;;;;;;;20.33;6.03;;;1.20;99.90;;;;;;5091954;28;20040;-53
2023/12/03 07:27:07;;;;;;;18.10;6.20;;;1.10;99.90;;;;;;5091828;28;20041;-53
2023/12/03 07:29:34;;;;;;;14.90;5.30;;;1.00;99.90;;;;;;5091266;28;20105;-53
2023/12/03 07:32:00;;;;;;;18.90;6.00;;;1.00;99.90;;;;;;5092324;28;20071;-53
2023/12/03 07:34:26;;;;;;;17.70;5.83;;;1.00;99.90;;;;;;5091902;28;20114;-54
2023/12/03 07:36:52;;;;;;;15.37;5.40;;;0.90;99.90;;;;;;5091921;28;20117;-53
2023/12/03 07:39:18;;;;;;;16.57;5.57;;;0.90;99.90;;;;;;5091824;28;20051;-52
2023/12/03 07:41:50;;;;;;;18.03;6.93;;;0.90;99.90;;;;;;5091795;28;20481;-50
2023/12/03 07:44:16;;;;;;;16.70;5.60;;;0.90;99.90;;;;;;5089382;28;20432;-53
2023/12/03 07:46:42;;;;;;;19.13;5.60;;;0.90;99.90;;;;;;5091657;28;20055;-53
2023/12/03 07:49:08;;;;;;;16.87;5.27;;;0.90;99.90;;;;;;5091772;28;20024;-53
2023/12/03 07:51:33;;;;;;;15.20;5.13;;;0.90;99.90;;;;;;5091757;28;20027;-55
2023/12/03 07:53:59;;;;;;;18.73;5.93;;;0.90;99.90;;;;;;5091823;28;20034;-54
2023/12/03 07:56:34;;;;;;;16.00;5.77;;;0.90;99.90;;;;;;5091754;28;20093;-51
2023/12/03 07:59:00;;;;;;;15.83;5.30;;;0.90;99.90;;;;;;5091841;28;20036;-50
2023/12/03 08:01:25;;;;;;;16.17;6.00;;;1.00;99.90;;;;;;5091788;28;20090;-54
2023/12/03 08:03:51;;;;;;;13.67;5.20;;;1.10;99.90;;;;;;5090403;28;20040;-54
2023/12/03 08:06:17;;;;;;;14.03;5.30;;;1.10;99.90;;;;;;5091620;28;20453;-53
2023/12/03 08:08:45;;;;;;;15.27;4.73;;;1.10;99.90;;;;;;5091461;28;20039;-54
2023/12/03 08:11:11;;;;;;;14.45;5.50;;;1.10;99.90;;;;;;5091721;28;20054;-54
2023/12/03 08:13:37;;;;;;;15.23;5.00;;;1.20;99.90;;;;;;5091607;28;20040;-50
2023/12/03 08:16:04;;;;;;;16.37;4.83;;;1.20;99.90;;;;;;5091561;28;20024;-55
2023/12/03 08:18:30;;;;;;;16.53;5.10;;;1.20;99.90;;;;;;5091406;28;20111;-55
2023/12/03 08:20:56;;;;;;;13.00;4.60;;;1.30;99.90;;;;;;5091534;28;20036;-54
2023/12/03 08:23:22;;;;;;;19.47;5.43;;;1.40;99.90;;;;;;5091440;28;20111;-54
2023/12/03 08:25:47;;;;;;;14.83;5.50;;;1.40;99.90;;;;;;5091459;28;20032;-50
2023/12/03 08:28:13;;;;;;;13.37;4.57;;;1.50;99.90;;;;;;5091311;28;20051;-53
2023/12/03 08:30:39;;;;;;;11.50;4.60;;;1.40;99.90;;;;;;5089963;28;20032;-53
2023/12/03 08:33:04;;;;;;;11.90;4.03;;;1.40;99.90;;;;;;5091425;28;20024;-52
2023/12/03 08:35:33;;;;;;;16.37;4.83;;;1.40;99.90;;;;;;5090215;28;20028;-54
2023/12/03 08:37:59;;;;;;;16.83;4.37;;;1.50;99.90;;;;;;5091667;28;20032;-52
2023/12/03 08:40:24;;;;;;;17.60;4.93;;;1.50;99.90;;;;;;5092915;28;20480;-54
2023/12/03 08:42:50;;;;;;;13.93;4.77;;;1.50;99.90;;;;;;5093854;28;20072;-50
2023/12/03 08:45:16;;;;;;;13.37;4.73;;;1.50;99.90;;;;;;5094807;28;20024;-50
2023/12/03 08:47:41;;;;;;;18.10;5.00;;;1.50;99.90;;;;;;5094841;28;20075;-53
2023/12/03 08:50:08;;;;;;;13.33;5.13;;;1.50;99.90;;;;;;5094842;28;20033;-54
2023/12/03 08:52:34;;;;;;;10.30;4.63;;;1.50;99.90;;;;;;5094832;28;20439;-54
2023/12/03 08:55:00;;;;;;;15.13;4.57;;;1.60;99.90;;;;;;5094732;28;20114;-54
2023/12/03 08:57:26;;;;;;;13.43;4.87;;;1.60;99.90;;;;;;5094627;28;20400;-50
2023/12/03 08:59:53;;;;;;;15.57;5.13;;;1.70;99.90;;;;;;5094458;28;20055;-53
2023/12/03 09:02:22;;;;;;;11.30;4.37;;;1.70;99.90;;;;;;5094802;28;20027;-50
2023/12/03 09:04:50;;;;;;;15.90;5.30;;;1.70;99.90;;;;;;5094420;28;20032;-50
2023/12/03 09:07:16;;;;;;;13.57;4.77;;;1.80;99.90;;;;;;5094588;28;20043;-50
2023/12/03 09:09:42;;;;;;;17.73;6.40;;;1.90;99.90;;;;;;5094517;28;20035;-53
2023/12/03 09:12:08;;;;;;;11.97;5.40;;;1.90;99.90;;;;;;5093299;28;20073;-51
2023/12/03 09:14:34;;;;;;;17.87;5.90;;;2.00;99.90;;;;;;5094534;28;20031;-50
2023/12/03 09:17:00;;;;;;;16.13;5.10;;;1.90;99.90;;;;;;5094777;28;20043;-52
2023/12/03 09:19:25;;;;;;;10.57;5.07;;;1.90;99.90;;;;;;5094510;28;20024;-50
2023/12/03 09:21:54;;;;;;;15.23;4.83;;;2.00;99.90;;;;;;5093453;28;20519;-51
2023/12/03 09:24:19;;;;;;;12.90;4.77;;;2.20;99.90;;;;;;5094737;28;20085;-50
2023/12/03 09:26:46;;;;;;;17.50;5.13;;;2.20;99.90;;;;;;5094775;28;20064;-50
2023/12/03 09:29:13;;;;;;;16.27;5.40;;;2.20;99.90;;;;;;5093935;28;20039;-51
2023/12/03 09:31:41;;;;;;;14.63;5.23;;;2.20;99.90;;;;;;5095700;28;20032;-50
2023/12/03 09:34:08;;;;;;;12.50;5.57;;;2.30;99.90;;;;;;5095565;28;20024;-50
2023/12/03 09:36:34;;;;;;;32.00;12.33;;;2.30;99.90;;;;;;5094820;28;20487;-53
2023/12/03 09:39:04;;;;;;;16.40;6.33;;;2.50;99.90;;;;;;5095165;28;20131;-50
2023/12/03 09:41:33;;;;;;;14.07;5.20;;;2.70;99.90;;;;;;5095135;28;20032;-50
2023/12/03 09:44:02;;;;;;;14.65;4.93;;;2.90;99.90;;;;;;5094677;28;20024;-50
2023/12/03 09:46:32;;;;;;;9.18;3.85;;;3.20;99.90;;;;;;5093670;28;20032;-53
2023/12/03 09:49:03;;;;;;;11.80;4.70;;;4.00;99.90;;;;;;5093606;28;20122;-54
2023/12/03 09:51:32;;;;;;;11.47;4.50;;;5.10;99.90;;;;;;5093046;28;20032;-53
2023/12/03 09:53:59;;;;;;;14.15;5.82;;;6.40;99.90;;;;;;5093739;28;20035;-56
2023/12/03 09:56:28;;;;;;;13.00;5.23;;;7.60;99.90;;;;;;5093490;28;20024;-53
2023/12/03 09:58:54;;;;;;;12.00;5.05;;;8.50;99.90;;;;;;5093547;28;20024;-52
2023/12/03 10:01:23;;;;;;;10.67;5.23;;;8.70;99.70;;;;;;5093431;28;20032;-52
2023/12/03 10:03:51;;;;;;;13.55;5.25;;;8.60;99.40;;;;;;5093469;28;20119;-54
2023/12/03 10:06:22;;;;;;;15.13;6.17;;;8.70;99.60;;;;;;5093337;28;20035;-51
2023/12/03 10:08:49;;;;;;;13.03;5.40;;;8.80;99.10;;;;;;5093153;28;20481;-54
2023/12/03 10:11:23;;;;;;;14.77;5.47;;;8.70;99.10;;;;;;5093270;28;20036;-53
2023/12/03 10:13:50;;;;;;;10.53;4.03;;;8.80;99.10;;;;;;5093191;28;20062;-52
2023/12/03 10:16:16;;;;;;;12.00;5.07;;;9.30;98.00;;;;;;5093178;28;20020;-51
2023/12/03 10:18:43;;;;;;;12.57;5.40;;;9.70;98.00;;;;;;5093131;28;20295;-54
2023/12/03 10:21:09;;;;;;;13.93;5.57;;;10.50;95.80;;;;;;5093037;28;20060;-54
2023/12/03 10:23:35;;;;;;;13.90;5.50;;;11.30;94.80;;;;;;5092573;28;20429;-54
2023/12/03 10:26:15;;;;;;;13.10;5.30;;;11.80;93.20;;;;;;5092318;28;20062;-55
2023/12/03 10:28:41;;;;;;;11.10;5.57;;;11.90;92.70;;;;;;5092837;28;20032;-53
2023/12/03 10:31:11;;;;;;;12.55;6.15;;;12.70;90.90;;;;;;5093111;28;20020;-54
2023/12/03 10:33:38;;;;;;;12.98;5.80;;;13.40;89.30;;;;;;5092921;28;20111;-54
2023/12/03 10:36:04;;;;;;;12.00;5.45;;;13.80;84.40;;;;;;5092770;28;20028;-52
2023/12/03 10:38:43;;;;;;;10.63;5.18;;;14.50;82.00;;;;;;5091618;28;20046;-52
2023/12/03 10:41:13;;;;;;;;;;;15.00;79.20;;;;;;5092008;28;20040;-54
2023/12/03 10:43:40;;;;;;;12.80;5.57;;;15.00;76.80;;;;;;5092704;28;20371;-54
2023/12/03 10:46:10;;;;;;;12.82;5.18;;;13.20;78.70;;;;;;5092647;28;20028;-54
2023/12/03 10:48:36;;;;;;;12.75;5.88;;;11.20;84.80;;;;;;5092414;28;20039;-54
2023/12/03 10:51:04;;;;;;;12.03;5.67;;;9.60;90.90;;;;;;5092472;28;20495;-53
2023/12/03 10:53:34;;;;;;;13.63;5.67;;;8.30;93.10;;;;;;5092466;28;20078;-54
2023/12/03 10:56:05;;;;;;;12.73;5.30;;;8.10;94.60;;;;;;5091087;28;20027;-54
2023/12/03 10:58:33;;;;;;;14.17;5.17;;;8.10;95.00;;;;;;5092405;28;20047;-54
2023/12/03 11:01:17;;;;;;;14.87;5.80;;;7.70;95.40;;;;;;5091163;28;20508;-50
2023/12/03 11:03:56;;;;;;;13.37;4.93;;;7.10;96.70;;;;;;5090096;28;20498;-53
2023/12/03 11:06:23;;;;;;;13.48;5.47;;;6.20;98.40;;;;;;5092300;28;20089;-54
2023/12/03 11:08:51;;;;;;;23.00;9.50;;;5.40;99.90;;;;;;5092183;28;20031;-54
2023/12/03 11:11:19;;;;;;;16.90;6.67;;;5.20;99.90;;;;;;5091130;28;20048;-53
2023/12/03 11:13:45;;;;;;;15.73;6.17;;;5.00;99.90;;;;;;5092182;28;20056;-53
2023/12/03 11:16:13;;;;;;;12.90;5.30;;;5.10;99.90;;;;;;5092041;28;20059;-54
2023/12/03 11:19:04;;;;;;;12.37;5.20;;;6.00;99.90;;;;;;5092221;28;20028;-50
2023/12/03 11:21:49;;;;;;;11.13;4.33;;;7.00;99.90;;;;;;5092249;28;20071;-54
2023/12/03 11:24:45;;;;;;;14.27;4.73;;;7.90;98.40;;;;;;5090875;28;20024;-54
2023/12/03 11:27:10;;;;;;;14.50;4.97;;;8.20;97.00;;;;;;5092046;28;20032;-54
2023/12/03 11:29:56;;;;;;;13.60;5.20;;;7.90;97.20;;;;;;5091903;28;20036;-52
2023/12/03 11:32:24;;;;;;;14.77;5.70;;;7.40;98.20;;;;;;5092080;28;20032;-53
2023/12/03 11:34:59;;;;;;;15.30;6.53;;;6.80;99.40;;;;;;5091815;28;20016;-53
2023/12/03 11:37:29;;;;;;;14.77;5.83;;;6.00;99.90;;;;;;5090626;28;20036;-49
2023/12/03 11:39:56;;;;;;;14.40;5.20;;;5.90;99.90;;;;;;5091839;28;20492;-51
2023/12/03 11:42:25;;;;;;;12.83;5.40;;;6.30;99.90;;;;;;5090675;28;20484;-52
2023/12/03 11:45:25;;;;;;;13.77;5.70;;;7.10;99.80;;;;;;5091626;28;20060;-53
2023/12/03 11:48:06;;;;;;;13.87;5.47;;;7.50;99.00;;;;;;5091805;28;20039;-54
2023/12/03 11:50:34;;;;;;;13.53;4.27;;;8.00;97.80;;;;;;5091690;28;20075;-50
2023/12/03 11:53:00;;;;;;;15.63;6.00;;;7.80;97.70;;;;;;5091952;28;20077;-51
2023/12/03 11:55:27;;;;;;;14.37;5.27;;;7.50;98.00;;;;;;5091721;28;20110;-50
2023/12/03 11:57:53;;;;;;;13.97;4.93;;;7.30;98.90;;;;;;5091791;28;20071;-51
2023/12/03 12:00:19;;;;;;;13.43;5.20;;;7.00;99.10;;;;;;5091731;28;20063;-50
2023/12/03 12:02:45;;;;;;;11.63;4.63;;;6.50;99.50;;;;;;5091761;28;20024;-50
2023/12/03 12:05:10;;;;;;;12.37;5.27;;;6.40;99.90;;;;;;5091743;28;20035;-50
2023/12/03 12:07:36;;;;;;;13.40;5.57;;;6.10;99.90;;;;;;5091800;28;20032;-53
2023/12/03 12:10:04;;;;;;;17.93;5.87;;;6.10;99.90;;;;;;5091859;28;20107;-53
2023/12/03 12:12:29;;;;;;;13.10;5.47;;;5.80;99.90;;;;;;5091819;28;20036;-52
2023/12/03 12:14:55;;;;;;;12.70;4.30;;;5.80;99.90;;;;;;5092746;28;20024;-54
2023/12/03 12:17:21;;;;;;;14.50;5.23;;;5.90;99.90;;;;;;5095755;28;20059;-55
2023/12/03 12:19:50;;;;;;;11.47;4.53;;;5.90;99.90;;;;;;5095337;28;20032;-55
2023/12/03 12:22:16;;;;;;;14.52;5.43;;;6.10;99.90;;;;;;5095565;28;20123;-54
2023/12/03 12:24:44;;;;;;;12.03;4.70;;;6.50;99.90;;;;;;5095548;28;20131;-55
2023/12/03 12:27:10;;;;;;;14.87;5.43;;;6.90;99.90;;;;;;5095321;28;20114;-53
2023/12/03 12:29:36;;;;;;;13.13;4.53;;;7.70;97.90;;;;;;5095721;28;20074;-54
2023/12/03 12:32:02;;;;;;;15.97;5.80;;;7.70;98.10;;;;;;5096078;28;20040;-51
2023/12/03 12:34:29;;;;;;;14.10;5.77;;;7.90;97.70;;;;;;5095581;28;20427;-51
2023/12/03 12:37:03;;;;;;;13.47;4.67;;;8.30;97.20;;;;;;5095723;28;20396;-54
2023/12/03 12:39:29;;;;;;;14.93;4.80;;;7.90;97.10;;;;;;5095471;28;20028;-53
2023/12/03 12:41:55;;;;;;;16.63;6.43;;;7.20;98.30;;;;;;5094971;28;20384;-54
2023/12/03 12:44:35;;;;;;;15.00;5.93;;;6.60;99.10;;;;;;5094970;28;20028;-55